Time;durP1;ratioP1;P1;durP2;ratioP2;P2;SDS_P1;SDS_P2;PMS_P1;PMS_P2;Temp;Humidity;BMP_temperature;BMP_pressure;BME280_temperature;BME280_humidity;BME280_pressure;Samples;Min_cycle;Max_cycle;Signal;HPM_P1;HPM_P2
2022/10/14 00:01:25;;;;;;;51.90;45.50;;;14.00;99.90;;;;;;5132430;28;20418;-83
2022/10/14 00:03:55;;;;;;;51.53;45.37;;;14.00;99.90;;;;;;5129988;27;20443;-81
2022/10/14 00:06:26;;;;;;;47.80;42.60;;;13.90;99.90;;;;;;5131394;28;20534;-82
2022/10/14 00:08:55;;;;;;;49.43;44.13;;;14.00;99.90;;;;;;5129528;28;20449;-82
2022/10/14 00:11:25;;;;;;;50.93;45.33;;;13.90;99.90;;;;;;5130471;28;20439;-83
2022/10/14 00:13:54;;;;;;;49.53;44.00;;;13.90;99.90;;;;;;5128644;28;20447;-84
2022/10/14 00:16:25;;;;;;;48.90;43.80;;;13.90;99.90;;;;;;5128646;28;20511;-84
2022/10/14 00:18:53;;;;;;;50.47;44.37;;;13.90;99.90;;;;;;5129487;28;20416;-81
2022/10/14 00:21:21;;;;;;;51.00;42.50;;;13.90;99.90;;;;;;5128474;28;20443;-81
2022/10/14 00:23:51;;;;;;;51.97;46.33;;;14.00;99.90;;;;;;5127783;28;20442;-81
2022/10/14 00:26:22;;;;;;;50.63;43.77;;;13.90;99.90;;;;;;5128591;27;20526;-80
2022/10/14 00:28:51;;;;;;;55.33;45.63;;;13.90;99.90;;;;;;5131345;28;20923;-82
2022/10/14 00:31:20;;;;;;;49.23;43.83;;;13.90;99.90;;;;;;5130236;28;20463;-83
2022/10/14 00:33:49;;;;;;;51.00;44.60;;;13.90;99.90;;;;;;5129026;28;20518;-81
2022/10/14 00:36:21;;;;;;;50.27;44.73;;;13.90;99.90;;;;;;5128951;28;20526;-81
2022/10/14 00:38:52;;;;;;;51.70;43.60;;;13.90;99.90;;;;;;5128170;28;20440;-83
2022/10/14 00:41:23;;;;;;;49.20;43.67;;;13.90;99.90;;;;;;5129905;28;20420;-81
2022/10/14 00:43:55;;;;;;;52.40;45.40;;;13.90;99.90;;;;;;5128285;28;20435;-81
2022/10/14 00:46:24;;;;;;;59.37;45.30;;;13.90;99.90;;;;;;5128010;28;20468;-82
2022/10/14 00:49:01;;;;;;;57.97;47.53;;;13.90;99.90;;;;;;5127400;28;20860;-81
2022/10/14 00:51:30;;;;;;;52.23;46.10;;;13.90;99.90;;;;;;5126951;28;20439;-82
2022/10/14 00:53:59;;;;;;;51.63;45.97;;;13.90;99.90;;;;;;5125804;28;20440;-81
2022/10/14 00:56:29;;;;;;;52.37;45.43;;;13.90;99.90;;;;;;5126198;28;20470;-82
2022/10/14 00:58:58;;;;;;;54.10;48.07;;;13.90;99.90;;;;;;5127990;28;20435;-83
2022/10/14 01:01:26;;;;;;;53.83;46.60;;;13.90;99.90;;;;;;5127197;28;20519;-81
2022/10/14 01:03:55;;;;;;;56.00;44.33;;;13.90;99.90;;;;;;5126458;28;20495;-82
2022/10/14 01:06:38;;;;;;;54.17;45.57;;;13.90;99.90;;;;;;5126648;28;20905;-83
2022/10/14 01:09:14;;;;;;;54.63;47.27;;;13.90;99.90;;;;;;5126136;28;20504;-82
2022/10/14 01:11:50;;;;;;;54.83;44.97;;;13.80;99.90;;;;;;5130716;28;20476;-83
2022/10/14 01:14:48;;;;;;;52.00;45.77;;;13.80;99.90;;;;;;5132808;28;20428;-83
2022/10/14 01:17:24;;;;;;;54.13;47.63;;;13.80;99.90;;;;;;5132220;28;20459;-83
2022/10/14 01:20:16;;;;;;;52.73;46.97;;;13.80;99.90;;;;;;5133940;28;20422;-84
2022/10/14 01:22:54;;;;;;;56.30;48.37;;;13.80;99.90;;;;;;5131200;28;20446;-83
2022/10/14 01:25:28;;;;;;;57.13;49.17;;;13.80;99.90;;;;;;5131653;28;20463;-82
2022/10/14 01:28:19;;;;;;;54.47;45.80;;;13.80;99.90;;;;;;5132185;28;20411;-83
2022/10/14 01:30:52;;;;;;;55.40;47.60;;;13.80;99.90;;;;;;5131069;28;20449;-84
2022/10/14 01:33:24;;;;;;;61.53;51.17;;;13.80;99.90;;;;;;5130165;28;20450;-83
2022/10/14 01:36:02;;;;;;;55.00;48.80;;;13.80;99.90;;;;;;5130848;28;20561;-81
2022/10/14 01:38:37;;;;;;;53.53;47.70;;;13.80;99.90;;;;;;5130505;28;20490;-81
2022/10/14 01:41:11;;;;;;;57.03;50.67;;;13.80;99.90;;;;;;5130457;28;20432;-81
2022/10/14 01:43:42;;;;;;;55.80;47.87;;;13.80;99.90;;;;;;5129362;28;20440;-83
2022/10/14 01:46:13;;;;;;;53.53;45.70;;;13.80;99.90;;;;;;5128962;28;20455;-81
2022/10/14 01:48:46;;;;;;;52.17;46.53;;;13.80;99.90;;;;;;5129644;28;20971;-83
2022/10/14 01:51:19;;;;;;;52.30;44.63;;;13.80;99.90;;;;;;5129132;28;20846;-82
2022/10/14 01:53:54;;;;;;;55.43;48.40;;;13.80;99.90;;;;;;5128464;28;20431;-81
2022/10/14 01:56:26;;;;;;;55.27;46.80;;;13.80;99.90;;;;;;5127870;28;20893;-83
2022/10/14 01:58:56;;;;;;;55.77;47.37;;;13.70;99.90;;;;;;5129244;28;20443;-83
2022/10/14 02:01:26;;;;;;;52.13;45.83;;;13.70;99.90;;;;;;5127788;28;20519;-82
2022/10/14 02:03:54;;;;;;;53.50;46.10;;;13.70;99.90;;;;;;5127610;28;20467;-83
2022/10/14 02:06:27;;;;;;;58.03;48.63;;;13.70;99.90;;;;;;5126725;28;20465;-83
2022/10/14 02:09:07;;;;;;;55.63;46.50;;;13.70;99.90;;;;;;5127300;28;20436;-83
2022/10/14 02:11:44;;;;;;;56.00;46.80;;;13.70;99.90;;;;;;5128101;28;20470;-81
2022/10/14 02:14:28;;;;;;;56.10;47.37;;;13.70;99.90;;;;;;5127641;28;20482;-83
2022/10/14 02:17:01;;;;;;;58.97;49.37;;;13.70;99.90;;;;;;5130794;28;20474;-82
2022/10/14 02:19:38;;;;;;;58.23;48.40;;;13.70;99.90;;;;;;5129387;28;20435;-83
2022/10/14 02:22:14;;;;;;;53.27;45.83;;;13.70;99.90;;;;;;5130038;28;20450;-83
2022/10/14 02:24:51;;;;;;;53.13;47.27;;;13.60;99.90;;;;;;5129544;28;20435;-81
2022/10/14 02:27:21;;;;;;;60.60;49.00;;;13.70;99.90;;;;;;5128234;28;20427;-82
2022/10/14 02:29:51;;;;;;;59.83;49.10;;;13.70;99.90;;;;;;5127290;28;20470;-82
2022/10/14 02:32:23;;;;;;;57.37;47.63;;;13.70;99.90;;;;;;5126467;28;20459;-82
2022/10/14 02:34:57;;;;;;;56.50;49.70;;;13.70;99.90;;;;;;5126443;28;20441;-83
2022/10/14 02:37:28;;;;;;;62.13;52.30;;;13.70;99.90;;;;;;5126747;28;20473;-81
2022/10/14 02:40:04;;;;;;;56.63;48.40;;;13.70;99.90;;;;;;5125417;28;20465;-82
2022/10/14 02:42:33;;;;;;;60.10;50.87;;;13.70;99.90;;;;;;5123672;28;20443;-83
2022/10/14 02:45:05;;;;;;;59.20;50.30;;;13.70;99.90;;;;;;5124745;28;20480;-82
2022/10/14 02:47:35;;;;;;;60.83;50.33;;;13.70;99.90;;;;;;5124726;28;20944;-83
2022/10/14 02:50:03;;;;;;;54.77;48.97;;;13.70;99.90;;;;;;5124117;28;20488;-83
2022/10/14 02:52:31;;;;;;;56.80;47.37;;;13.70;99.90;;;;;;5124316;28;21023;-83
2022/10/14 02:55:00;;;;;;;57.40;46.07;;;13.70;99.90;;;;;;5122935;28;20471;-83
2022/10/14 02:57:28;;;;;;;58.53;49.50;;;13.70;99.90;;;;;;5125996;28;21031;-82
2022/10/14 02:59:57;;;;;;;59.83;50.10;;;13.60;99.90;;;;;;5131601;28;20530;-82
2022/10/14 03:02:25;;;;;;;60.63;50.47;;;13.70;99.90;;;;;;5128416;28;20459;-82
2022/10/14 03:04:56;;;;;;;59.13;47.97;;;13.70;99.90;;;;;;5127003;28;20472;-82
2022/10/14 03:07:25;;;;;;;64.00;51.10;;;13.70;99.90;;;;;;5127149;28;20443;-81
2022/10/14 03:09:57;;;;;;;63.60;52.03;;;13.60;99.90;;;;;;5127244;28;20491;-82
2022/10/14 03:12:25;;;;;;;62.03;50.00;;;13.60;99.90;;;;;;5126240;28;20453;-82
2022/10/14 03:14:56;;;;;;;67.70;57.00;;;13.60;99.90;;;;;;5126460;28;20443;-82
2022/10/14 03:17:26;;;;;;;65.10;53.47;;;13.60;99.90;;;;;;5126355;28;20511;-83
2022/10/14 03:20:00;;;;;;;69.07;56.37;;;13.60;99.90;;;;;;5126417;28;20436;-83
2022/10/14 03:22:30;;;;;;;67.47;55.40;;;13.60;99.90;;;;;;5125478;28;21012;-83
2022/10/14 03:24:59;;;;;;;67.43;56.17;;;13.60;99.90;;;;;;5124924;28;20454;-82
2022/10/14 03:27:42;;;;;;;65.87;56.20;;;13.60;99.90;;;;;;5124865;28;20447;-81
2022/10/14 03:30:14;;;;;;;66.13;53.40;;;13.60;99.90;;;;;;5124928;28;20443;-83
2022/10/14 03:32:57;;;;;;;60.17;53.10;;;13.60;99.90;;;;;;5125295;27;20466;-82
2022/10/14 03:35:39;;;;;;;65.87;54.10;;;13.60;99.90;;;;;;5125743;28;20478;-82
2022/10/14 03:38:12;;;;;;;65.23;52.90;;;13.60;99.90;;;;;;5124489;28;20491;-82
2022/10/14 03:40:41;;;;;;;64.60;54.10;;;13.60;99.90;;;;;;5124894;28;20451;-82
2022/10/14 03:43:12;;;;;;;57.80;49.17;;;13.60;99.90;;;;;;5126339;28;20463;-82
2022/10/14 03:45:49;;;;;;;63.50;56.23;;;13.60;99.90;;;;;;5124951;28;20860;-83
2022/10/14 03:48:20;;;;;;;64.67;55.60;;;13.60;99.90;;;;;;5125407;28;20443;-82
2022/10/14 03:50:49;;;;;;;70.40;55.47;;;13.60;99.90;;;;;;5125862;28;20453;-82
2022/10/14 03:53:20;;;;;;;65.60;54.80;;;13.60;99.90;;;;;;5128093;28;20431;-82
2022/10/14 03:55:49;;;;;;;65.70;54.47;;;13.60;99.90;;;;;;5126294;28;20459;-83
2022/10/14 03:58:18;;;;;;;58.50;52.20;;;13.60;99.90;;;;;;5125643;28;20466;-83
2022/10/14 04:00:52;;;;;;;62.07;52.23;;;13.60;99.90;;;;;;5127209;28;20432;-82
2022/10/14 04:03:53;;;;;;;63.77;53.20;;;13.60;99.90;;;;;;5128174;28;20518;-83
2022/10/14 04:06:23;;;;;;;60.77;51.80;;;13.60;99.90;;;;;;5127375;28;20980;-82
2022/10/14 04:08:56;;;;;;;59.83;49.67;;;13.60;99.90;;;;;;5127399;28;20435;-82
2022/10/14 04:11:30;;;;;;;56.60;48.37;;;13.60;99.90;;;;;;5127174;28;20478;-83
2022/10/14 04:14:04;;;;;;;55.50;49.47;;;13.60;99.90;;;;;;5127089;28;20531;-83
2022/10/14 04:16:38;;;;;;;60.07;51.87;;;13.60;99.90;;;;;;5128344;28;20462;-83
2022/10/14 04:19:10;;;;;;;62.97;50.93;;;13.60;99.90;;;;;;5126666;28;20471;-82
2022/10/14 04:21:42;;;;;;;69.57;52.63;;;13.50;99.90;;;;;;5127015;28;20439;-83
2022/10/14 04:24:11;;;;;;;62.97;52.43;;;13.50;99.90;;;;;;5128129;28;20440;-82
2022/10/14 04:26:49;;;;;;;64.93;52.10;;;13.50;99.90;;;;;;5128109;28;20466;-82
2022/10/14 04:29:25;;;;;;;60.83;51.80;;;13.50;99.90;;;;;;5128338;28;20441;-82
2022/10/14 04:32:00;;;;;;;61.90;53.87;;;13.50;99.90;;;;;;5127505;28;20811;-82
2022/10/14 04:34:29;;;;;;;58.73;52.30;;;13.50;99.90;;;;;;5128170;28;20448;-83
2022/10/14 04:36:59;;;;;;;60.90;53.10;;;13.50;99.90;;;;;;5128752;28;20509;-82
2022/10/14 04:39:56;;;;;;;63.67;54.70;;;13.50;99.90;;;;;;5123659;28;20447;-82
2022/10/14 04:42:25;;;;;;;76.93;64.20;;;13.50;99.90;;;;;;5132821;28;20476;-82
2022/10/14 04:44:59;;;;;;;65.17;53.97;;;13.50;99.90;;;;;;5134732;28;20433;-83
2022/10/14 04:47:40;;;;;;;63.57;54.80;;;13.50;99.90;;;;;;5135309;28;20439;-82
2022/10/14 04:50:19;;;;;;;65.37;52.20;;;13.50;99.90;;;;;;5138227;28;20431;-82
2022/10/14 04:53:10;;;;;;;64.23;54.60;;;13.50;99.90;;;;;;5139375;28;20447;-83
2022/10/14 04:55:53;;;;;;;59.40;50.40;;;13.50;99.90;;;;;;5138039;28;20474;-82
2022/10/14 04:58:21;;;;;;;62.37;53.53;;;13.50;99.90;;;;;;5138507;28;20462;-83
2022/10/14 05:00:50;;;;;;;63.83;52.03;;;13.50;99.90;;;;;;5139636;28;20434;-82
2022/10/14 05:03:32;;;;;;;64.17;52.87;;;13.50;99.90;;;;;;5139274;28;20455;-81
2022/10/14 05:06:00;;;;;;;65.70;54.30;;;13.50;99.90;;;;;;5140256;27;20439;-82
2022/10/14 05:08:31;;;;;;;65.90;53.10;;;13.50;99.90;;;;;;5139007;28;20458;-82
2022/10/14 05:11:01;;;;;;;62.83;51.70;;;13.50;99.90;;;;;;5138593;28;20432;-83
2022/10/14 05:13:42;;;;;;;57.97;50.00;;;13.50;99.90;;;;;;5139328;28;20461;-82
2022/10/14 05:16:10;;;;;;;66.73;53.90;;;13.50;99.90;;;;;;5139645;28;20466;-81
2022/10/14 05:18:39;;;;;;;69.30;54.37;;;13.40;99.90;;;;;;5139238;28;20460;-81
2022/10/14 05:21:10;;;;;;;72.70;56.57;;;13.50;99.90;;;;;;5139967;28;20462;-82
2022/10/14 05:24:06;;;;;;;67.77;54.40;;;13.50;99.90;;;;;;5134848;28;20845;-82
2022/10/14 05:26:37;;;;;;;73.27;56.23;;;13.50;99.90;;;;;;5129674;28;20477;-84
2022/10/14 05:29:10;;;;;;;68.20;54.33;;;13.50;99.90;;;;;;5129961;28;20432;-83
2022/10/14 05:31:40;;;;;;;75.50;53.90;;;13.50;99.90;;;;;;5128956;28;20448;-82
2022/10/14 05:34:37;;;;;;;68.37;54.00;;;13.40;99.90;;;;;;5124398;28;20436;-82
2022/10/14 05:37:09;;;;;;;71.93;55.57;;;13.40;99.90;;;;;;5128008;28;20465;-83
2022/10/14 05:39:45;;;;;;;72.47;53.50;;;13.40;99.90;;;;;;5128619;28;20467;-83
2022/10/14 05:42:18;;;;;;;71.87;54.17;;;13.40;99.90;;;;;;5129317;28;20436;-83
2022/10/14 05:44:48;;;;;;;72.20;52.87;;;13.40;99.90;;;;;;5127404;28;20873;-83
2022/10/14 05:47:16;;;;;;;66.80;51.13;;;13.40;99.90;;;;;;5126556;28;20995;-83
2022/10/14 05:49:47;;;;;;;70.27;54.00;;;13.40;99.90;;;;;;5127252;28;20449;-82
2022/10/14 05:52:17;;;;;;;75.53;55.30;;;13.40;99.90;;;;;;5126639;28;20456;-82
2022/10/14 05:54:47;;;;;;;79.30;55.97;;;13.40;99.90;;;;;;5124885;28;20463;-82
2022/10/14 05:57:19;;;;;;;82.10;54.57;;;13.40;99.90;;;;;;5125602;28;20463;-83
2022/10/14 05:59:48;;;;;;;78.70;53.20;;;13.40;99.90;;;;;;5125199;28;20471;-82
2022/10/14 06:02:16;;;;;;;82.50;53.90;;;13.40;99.90;;;;;;5124902;28;20478;-82
2022/10/14 06:04:44;;;;;;;77.17;53.83;;;13.40;99.90;;;;;;5123976;28;20447;-82
2022/10/14 06:07:13;;;;;;;76.87;53.70;;;13.40;99.90;;;;;;5126224;28;20467;-82
2022/10/14 06:09:42;;;;;;;77.67;54.60;;;13.40;99.90;;;;;;5124262;28;20436;-82
2022/10/14 06:12:11;;;;;;;86.67;56.50;;;13.40;99.90;;;;;;5127952;28;20427;-82
2022/10/14 06:14:39;;;;;;;87.47;57.00;;;13.40;99.90;;;;;;5128471;28;20447;-83
2022/10/14 06:17:07;;;;;;;83.83;53.90;;;13.40;99.90;;;;;;5126062;28;20890;-82
2022/10/14 06:19:37;;;;;;;77.87;53.50;;;13.40;99.90;;;;;;5125707;28;20463;-82
2022/10/14 06:22:05;;;;;;;83.50;56.57;;;13.40;99.90;;;;;;5127019;28;20447;-83
2022/10/14 06:24:33;;;;;;;76.10;53.87;;;13.40;99.90;;;;;;5125218;28;20452;-82
2022/10/14 06:27:01;;;;;;;81.27;53.90;;;13.40;99.90;;;;;;5124863;28;20466;-83
2022/10/14 06:29:36;;;;;;;78.63;53.70;;;13.40;99.90;;;;;;5125927;28;20449;-82
2022/10/14 06:32:05;;;;;;;82.17;53.10;;;13.40;99.90;;;;;;5125447;28;20442;-81
2022/10/14 06:34:33;;;;;;;77.90;50.77;;;13.40;99.90;;;;;;5125440;28;20458;-83
2022/10/14 06:37:02;;;;;;;72.73;50.77;;;13.40;99.90;;;;;;5127507;28;20559;-81
2022/10/14 06:39:30;;;;;;;71.83;50.60;;;13.40;99.90;;;;;;5126982;28;20494;-81
2022/10/14 06:41:58;;;;;;;77.27;51.57;;;13.40;99.90;;;;;;5131610;28;20471;-83
2022/10/14 06:44:28;;;;;;;75.03;52.50;;;13.40;99.90;;;;;;5133654;28;20440;-83
2022/10/14 06:46:57;;;;;;;65.80;48.10;;;13.40;99.90;;;;;;5133328;28;20467;-83
2022/10/14 06:49:25;;;;;;;71.70;49.87;;;13.40;99.90;;;;;;5133191;28;20448;-84
2022/10/14 06:51:54;;;;;;;77.10;50.50;;;13.40;99.90;;;;;;5133198;28;20503;-82
2022/10/14 06:54:22;;;;;;;66.13;47.23;;;13.50;99.90;;;;;;5131800;28;20447;-82
2022/10/14 06:56:50;;;;;;;70.87;48.80;;;13.50;99.90;;;;;;5131420;28;20454;-82
2022/10/14 06:59:18;;;;;;;59.20;44.40;;;13.50;99.90;;;;;;5130191;28;20497;-82
2022/10/14 07:01:46;;;;;;;62.70;45.10;;;13.60;99.90;;;;;;5132243;28;20461;-83
2022/10/14 07:04:16;;;;;;;67.50;46.63;;;13.60;99.90;;;;;;5131156;28;20451;-81
2022/10/14 07:06:44;;;;;;;65.47;45.43;;;13.60;99.90;;;;;;5132205;28;20485;-83
2022/10/14 07:09:13;;;;;;;64.97;45.87;;;13.60;99.90;;;;;;5129240;28;20443;-85
2022/10/14 07:11:42;;;;;;;63.93;44.93;;;13.60;99.90;;;;;;5130575;28;20446;-83
2022/10/14 07:14:10;;;;;;;56.10;41.07;;;13.60;99.90;;;;;;5131229;28;20463;-81
2022/10/14 07:16:39;;;;;;;57.27;40.97;;;13.60;99.90;;;;;;5128680;28;20993;-81
2022/10/14 07:19:07;;;;;;;59.20;40.37;;;13.90;99.90;;;;;;5128645;28;20447;-81
2022/10/14 07:21:36;;;;;;;55.87;39.50;;;13.60;99.90;;;;;;5127882;28;20474;-81
2022/10/14 07:24:05;;;;;;;52.30;40.00;;;13.70;99.90;;;;;;5128300;28;20451;-83
2022/10/14 07:26:33;;;;;;;54.17;39.90;;;13.70;99.90;;;;;;5128089;28;20456;-82
2022/10/14 07:29:03;;;;;;;55.63;39.57;;;13.70;99.90;;;;;;5128704;28;20455;-83
2022/10/14 07:31:32;;;;;;;48.63;38.70;;;13.70;99.90;;;;;;5129268;28;20450;-82
2022/10/14 07:34:00;;;;;;;53.07;37.90;;;13.80;99.90;;;;;;5127127;28;20455;-81
2022/10/14 07:36:29;;;;;;;53.27;37.97;;;13.80;99.90;;;;;;5127312;28;20907;-83
2022/10/14 07:38:59;;;;;;;50.57;38.03;;;13.80;99.90;;;;;;5127475;28;20841;-82
2022/10/14 07:41:28;;;;;;;52.80;37.30;;;13.80;99.90;;;;;;5128821;28;20492;-83
2022/10/14 07:44:00;;;;;;;53.23;36.47;;;13.90;99.90;;;;;;5127543;28;20450;-82
2022/10/14 07:46:31;;;;;;;51.20;37.03;;;13.90;99.90;;;;;;5127380;28;20467;-84
2022/10/14 07:49:02;;;;;;;49.37;37.07;;;13.90;99.90;;;;;;5127956;28;20428;-82
2022/10/14 07:51:31;;;;;;;46.03;36.07;;;13.90;99.90;;;;;;5128656;28;20457;-83
2022/10/14 07:54:02;;;;;;;50.10;35.10;;;14.00;99.90;;;;;;5128285;28;20461;-84
2022/10/14 07:56:31;;;;;;;48.60;35.63;;;14.00;99.90;;;;;;5126642;28;20463;-83
2022/10/14 07:58:59;;;;;;;51.47;37.80;;;14.00;99.90;;;;;;5126952;28;21047;-83
2022/10/14 08:01:27;;;;;;;48.80;35.97;;;14.00;99.90;;;;;;5126363;28;20491;-82
2022/10/14 08:03:56;;;;;;;54.00;37.70;;;14.10;99.90;;;;;;5126223;28;20530;-83
2022/10/14 08:06:24;;;;;;;49.43;35.70;;;14.10;99.90;;;;;;5124443;28;20467;-82
2022/10/14 08:08:52;;;;;;;41.83;28.83;;;14.20;99.90;;;;;;5126627;28;20439;-82
2022/10/14 08:11:24;;;;;;;44.77;34.13;;;14.20;99.90;;;;;;5124112;28;20444;-83
2022/10/14 08:13:53;;;;;;;46.80;35.13;;;14.20;99.90;;;;;;5126004;28;20424;-83
2022/10/14 08:16:23;;;;;;;45.30;32.60;;;14.30;99.90;;;;;;5129204;28;20470;-83
2022/10/14 08:18:52;;;;;;;47.30;34.73;;;14.30;99.90;;;;;;5128259;28;20472;-83
2022/10/14 08:21:21;;;;;;;43.27;31.73;;;14.40;99.90;;;;;;5129145;28;20466;-84
2022/10/14 08:23:49;;;;;;;43.20;32.07;;;14.40;99.90;;;;;;5129820;28;20449;-83
2022/10/14 08:26:20;;;;;;;44.20;34.50;;;14.40;99.90;;;;;;5128794;28;20519;-80
2022/10/14 08:28:51;;;;;;;42.17;31.43;;;14.30;99.90;;;;;;5128795;28;20471;-81
2022/10/14 08:31:20;;;;;;;37.57;30.63;;;14.30;99.90;;;;;;5130043;28;20862;-83
2022/10/14 08:33:48;;;;;;;38.33;30.63;;;14.40;99.90;;;;;;5128491;28;20450;-85
2022/10/14 08:36:17;;;;;;;38.03;30.47;;;14.40;99.90;;;;;;5126884;28;20467;-82
2022/10/14 08:38:45;;;;;;;40.37;30.07;;;14.40;99.90;;;;;;5129708;28;20917;-83
2022/10/14 08:41:41;;;;;;;41.50;32.93;;;14.40;99.90;;;;;;5127274;28;20471;-83
2022/10/14 08:44:18;;;;;;;37.60;29.53;;;14.50;99.90;;;;;;5127894;28;20459;-81
2022/10/14 08:46:51;;;;;;;35.97;29.50;;;14.50;99.90;;;;;;5126890;28;20467;-82
2022/10/14 08:49:25;;;;;;;35.53;29.47;;;14.60;99.90;;;;;;5126923;28;20436;-81
2022/10/14 08:52:00;;;;;;;36.70;30.00;;;14.60;99.90;;;;;;5129049;28;20415;-81
2022/10/14 08:54:35;;;;;;;37.63;29.30;;;14.60;99.90;;;;;;5127328;28;20435;-82
2022/10/14 08:57:05;;;;;;;36.87;29.07;;;14.70;99.90;;;;;;5125083;28;21019;-83
2022/10/14 08:59:40;;;;;;;37.20;28.00;;;14.70;99.90;;;;;;5128877;28;20415;-82
2022/10/14 09:02:20;;;;;;;32.20;26.30;;;14.70;99.90;;;;;;5127015;28;20431;-84
2022/10/14 09:04:49;;;;;;;29.37;24.40;;;14.80;99.90;;;;;;5124650;28;20468;-81
2022/10/14 09:07:19;;;;;;;30.10;23.63;;;14.80;99.90;;;;;;5125158;28;20483;-82
2022/10/14 09:09:51;;;;;;;29.60;24.13;;;14.80;99.90;;;;;;5126422;28;20451;-82
2022/10/14 09:12:24;;;;;;;29.83;24.03;;;14.80;99.90;;;;;;5125969;28;20442;-83
2022/10/14 09:15:03;;;;;;;32.67;24.33;;;14.80;99.90;;;;;;5127481;28;20432;-84
2022/10/14 09:17:37;;;;;;;31.10;25.10;;;14.80;99.90;;;;;;5122912;28;20443;-81
2022/10/14 09:20:16;;;;;;;29.23;25.23;;;14.90;99.90;;;;;;5125694;28;20436;-82
2022/10/14 09:22:45;;;;;;;29.00;24.50;;;14.90;99.90;;;;;;5122191;28;20510;-82
2022/10/14 09:25:15;;;;;;;28.27;24.27;;;15.00;99.90;;;;;;5124973;28;20537;-82
2022/10/14 09:27:43;;;;;;;27.17;22.23;;;15.00;99.90;;;;;;5123781;28;20449;-83
2022/10/14 09:30:17;;;;;;;29.10;23.80;;;15.00;99.90;;;;;;5120167;28;20440;-82
2022/10/14 09:32:48;;;;;;;28.63;23.93;;;15.00;99.90;;;;;;5122161;28;20447;-83
2022/10/14 09:35:22;;;;;;;28.60;24.27;;;15.10;99.90;;;;;;5123013;28;20475;-83
2022/10/14 09:37:51;;;;;;;26.07;22.23;;;15.10;99.90;;;;;;5122611;28;20439;-83
2022/10/14 09:40:26;;;;;;;27.23;22.97;;;15.20;99.90;;;;;;5120230;28;20429;-83
2022/10/14 09:42:59;;;;;;;28.20;21.83;;;15.20;99.90;;;;;;5121708;28;20451;-82
2022/10/14 09:45:38;;;;;;;24.17;20.50;;;15.20;99.90;;;;;;5120317;28;20503;-81
2022/10/14 09:48:07;;;;;;;25.53;20.30;;;15.20;99.90;;;;;;5122286;28;20443;-81
2022/10/14 09:50:39;;;;;;;25.60;21.23;;;15.20;99.90;;;;;;5123459;28;20471;-83
2022/10/14 09:53:16;;;;;;;24.43;21.67;;;15.30;99.90;;;;;;5126561;28;20415;-82
2022/10/14 09:55:48;;;;;;;23.77;21.27;;;15.30;99.90;;;;;;5124244;28;20478;-82
2022/10/14 09:58:22;;;;;;;24.87;22.20;;;15.30;99.90;;;;;;5124207;28;20419;-82
2022/10/14 10:00:56;;;;;;;24.67;21.50;;;15.30;99.90;;;;;;5123061;28;20485;-82
2022/10/14 10:03:27;;;;;;;24.47;21.20;;;15.30;99.90;;;;;;5123524;28;20496;-81
2022/10/14 10:06:01;;;;;;;26.53;21.10;;;15.30;99.90;;;;;;5123982;28;20475;-81
2022/10/14 10:08:29;;;;;;;20.90;18.40;;;15.30;99.90;;;;;;5123261;28;20538;-81
2022/10/14 10:11:01;;;;;;;22.60;19.97;;;15.40;99.90;;;;;;5123263;28;20469;-81
2022/10/14 10:13:40;;;;;;;24.43;20.63;;;15.40;99.90;;;;;;5126021;28;20402;-82
2022/10/14 10:16:19;;;;;;;23.53;17.77;;;15.40;99.90;;;;;;5123959;28;20471;-82
2022/10/14 10:18:48;;;;;;;21.93;19.57;;;15.40;99.90;;;;;;5125531;28;20439;-82
2022/10/14 10:21:20;;;;;;;22.77;19.93;;;15.40;99.90;;;;;;5126002;28;20798;-82
2022/10/14 10:23:54;;;;;;;23.13;20.47;;;15.40;99.90;;;;;;5125517;28;20436;-82
2022/10/14 10:26:30;;;;;;;20.67;18.23;;;15.50;99.90;;;;;;5124016;28;20477;-83
2022/10/14 10:29:01;;;;;;;20.17;18.10;;;15.50;99.90;;;;;;5123270;28;20870;-82
2022/10/14 10:32:10;;;;;;;20.07;17.93;;;15.50;99.90;;;;;;5123112;28;20481;-83
2022/10/14 10:35:04;;;;;;;18.30;15.50;;;15.60;99.90;;;;;;5124540;28;20401;-82
2022/10/14 10:37:37;;;;;;;19.80;16.77;;;15.70;99.90;;;;;;5119181;28;20411;-82
2022/10/14 10:40:34;;;;;;;17.90;16.00;;;15.70;99.90;;;;;;5124174;28;20495;-83
2022/10/14 10:43:44;;;;;;;18.03;16.13;;;15.70;99.90;;;;;;5118474;28;20907;-83
2022/10/14 10:46:31;;;;;;;20.83;17.10;;;15.70;99.90;;;;;;5045229;28;20541;-83
2022/10/14 10:49:11;;;;;;;17.20;14.90;;;15.70;99.90;;;;;;5118719;28;20462;-81
2022/10/14 10:51:50;;;;;;;17.97;16.07;;;15.70;99.90;;;;;;5118953;28;20921;-83
2022/10/14 10:54:31;;;;;;;17.70;14.90;;;15.80;99.90;;;;;;5122186;28;20435;-81
2022/10/14 10:57:05;;;;;;;17.50;15.63;;;15.80;99.90;;;;;;5124658;28;20438;-82
2022/10/14 10:59:55;;;;;;;16.70;14.73;;;15.80;99.90;;;;;;5122177;28;20406;-81
2022/10/14 11:02:50;;;;;;;18.80;16.80;;;15.80;99.90;;;;;;5123914;28;20482;-83
2022/10/14 11:05:27;;;;;;;20.57;16.90;;;15.80;99.90;;;;;;5125135;28;20467;-83
2022/10/14 11:13:51;;;;;;;16.50;14.70;;;15.90;99.90;;;;;;5125473;28;20439;-82
2022/10/14 11:16:28;;;;;;;17.30;15.23;;;15.90;99.90;;;;;;5125775;28;20470;-81
2022/10/14 11:19:04;;;;;;;17.80;15.43;;;15.90;99.90;;;;;;5124379;28;20930;-84
2022/10/14 11:21:43;;;;;;;63.57;22.47;;;15.90;99.90;;;;;;5123608;28;20905;-82
2022/10/14 11:24:20;;;;;;;23.97;17.17;;;15.90;99.90;;;;;;5123901;28;20443;-83
2022/10/14 11:27:03;;;;;;;21.53;16.80;;;16.00;99.90;;;;;;5122885;28;21037;-83
2022/10/14 11:29:56;;;;;;;17.70;15.90;;;16.00;99.90;;;;;;5124484;28;20412;-81
2022/10/14 11:32:33;;;;;;;20.00;17.40;;;16.00;99.90;;;;;;5123822;28;20541;-83
2022/10/14 11:35:16;;;;;;;20.00;17.90;;;16.00;99.90;;;;;;5123479;28;20446;-82
2022/10/14 11:37:59;;;;;;;24.00;21.70;;;16.00;99.90;;;;;;5122976;28;20531;-83
2022/10/14 11:40:35;;;;;;;30.83;27.73;;;16.00;99.90;;;;;;5123871;28;20477;-81
2022/10/14 11:43:14;;;;;;;33.40;30.20;;;16.00;99.90;;;;;;5123365;28;20455;-82
2022/10/14 11:45:52;;;;;;;33.50;30.13;;;16.00;99.90;;;;;;5122023;28;20462;-81
2022/10/14 11:48:28;;;;;;;36.17;32.37;;;16.00;99.90;;;;;;5124315;28;20816;-82
2022/10/14 11:51:05;;;;;;;35.50;32.00;;;16.00;99.90;;;;;;5127158;28;20443;-82
2022/10/14 11:53:45;;;;;;;36.20;32.60;;;16.00;99.90;;;;;;5127557;28;20482;-82
2022/10/14 11:56:25;;;;;;;34.93;31.27;;;16.10;99.90;;;;;;5129158;28;20960;-83
2022/10/14 11:58:55;;;;;;;33.10;29.97;;;16.10;99.90;;;;;;5128562;28;20444;-82
2022/10/14 12:01:29;;;;;;;32.17;29.07;;;16.20;99.90;;;;;;5129194;28;20805;-82
2022/10/14 12:04:09;;;;;;;32.40;29.20;;;16.30;99.90;;;;;;5130984;28;20419;-81
2022/10/14 12:06:41;;;;;;;33.60;30.30;;;16.30;99.90;;;;;;5130702;28;20484;-83
2022/10/14 12:09:19;;;;;;;33.50;30.13;;;16.40;99.90;;;;;;5131470;28;20439;-83
2022/10/14 12:11:52;;;;;;;34.87;31.47;;;16.40;99.90;;;;;;5135846;28;20438;-82
2022/10/14 12:14:23;;;;;;;33.83;30.53;;;16.50;99.90;;;;;;5135375;28;20534;-83
2022/10/14 12:16:54;;;;;;;34.03;30.50;;;16.50;99.90;;;;;;5138350;28;20446;-81
2022/10/14 12:19:26;;;;;;;33.73;30.60;;;16.50;99.90;;;;;;5140480;28;20426;-80
2022/10/14 12:22:06;;;;;;;33.43;30.20;;;16.50;99.90;;;;;;5141466;28;20422;-83
2022/10/14 12:24:38;;;;;;;30.00;27.10;;;16.60;99.90;;;;;;5138516;28;20514;-81
2022/10/14 12:27:12;;;;;;;27.97;25.07;;;16.60;99.90;;;;;;5133740;28;20475;-81
2022/10/14 12:29:44;;;;;;;26.67;23.87;;;16.60;99.90;;;;;;5132699;28;20534;-83
2022/10/14 12:32:23;;;;;;;26.97;24.33;;;16.60;99.90;;;;;;5133242;28;20501;-82
2022/10/14 12:34:53;;;;;;;38.30;34.27;;;16.60;99.90;;;;;;5131703;28;20435;-82
2022/10/14 12:37:49;;;;;;;26.80;24.30;;;16.60;99.90;;;;;;5133978;28;20468;-81
2022/10/14 12:40:29;;;;;;;25.70;23.20;;;16.60;99.90;;;;;;5132397;28;20524;-81
2022/10/14 12:43:02;;;;;;;26.10;23.67;;;16.70;99.90;;;;;;5133797;28;20436;-81
2022/10/14 12:45:34;;;;;;;27.83;25.10;;;16.70;99.90;;;;;;5138018;28;20471;-82
2022/10/14 12:48:06;;;;;;;28.07;25.30;;;16.70;99.90;;;;;;5137094;28;20439;-81
2022/10/14 12:50:38;;;;;;;28.03;25.33;;;16.70;99.90;;;;;;5135261;28;20477;-81
2022/10/14 12:53:16;;;;;;;27.30;24.63;;;16.70;99.90;;;;;;5136470;28;20447;-81
2022/10/14 12:55:51;;;;;;;29.67;26.77;;;16.80;99.90;;;;;;5137625;28;20429;-82
2022/10/14 12:58:28;;;;;;;27.80;25.20;;;16.80;99.90;;;;;;5140610;28;20435;-82
2022/10/14 13:01:02;;;;;;;29.17;26.20;;;16.80;99.90;;;;;;5138043;28;20427;-82
2022/10/14 13:03:36;;;;;;;31.30;28.00;;;16.80;99.90;;;;;;5137309;28;20452;-81
2022/10/14 13:06:32;;;;;;;28.73;26.13;;;16.80;99.90;;;;;;5137936;28;20463;-82